Time;durP1;ratioP1;P1;durP2;ratioP2;P2;SDS_P1;SDS_P2;PMS_P1;PMS_P2;Temp;Humidity;BMP_temperature;BMP_pressure;BME280_temperature;BME280_humidity;BME280_pressure;Samples;Min_cycle;Max_cycle;Signal;HPM_P1;HPM_P2
2022/10/12 02:43:37;;;;;;;73.75;30.97;;;;;;;6.44;85.14;100137.02;1800845;79;22390;-46
2022/10/12 02:46:07;;;;;;;68.47;32.30;;;;;;;6.39;85.04;100140.22;1761630;81;21004;-46
2022/10/12 02:48:34;;;;;;;61.75;29.52;;;;;;;6.39;84.70;100148.91;1761749;81;20999;-45
2022/10/12 02:51:01;;;;;;;63.10;31.33;;;;;;;6.38;84.65;100139.34;1761901;80;20971;-46
2022/10/12 02:53:29;;;;;;;66.75;30.02;;;;;;;6.37;84.34;100145.48;1761990;81;21484;-45
2022/10/12 02:56:03;;;;;;;67.82;31.62;;;;;;;6.37;84.61;100141.56;1761770;81;20987;-39
2022/10/12 02:58:29;;;;;;;71.77;31.40;;;;;;;6.33;85.24;100139.47;1761746;80;21002;-42
2022/10/12 03:00:54;;;;;;;59.85;29.20;;;;;;;6.31;85.05;100143.00;1761866;81;21036;-42
2022/10/12 03:03:20;;;;;;;66.25;30.57;;;;;;;6.30;84.87;100142.60;1761866;80;21512;-44
2022/10/12 03:05:46;;;;;;;68.02;30.05;;;;;;;6.30;84.69;100142.60;1761811;81;20967;-43
2022/10/12 03:08:12;;;;;;;68.83;30.72;;;;;;;6.25;84.87;100140.55;1761789;81;21026;-42
2022/10/12 03:10:37;;;;;;;65.10;30.95;;;;;;;6.25;84.94;100141.84;1761734;81;21038;-42
2022/10/12 03:13:03;;;;;;;61.83;30.15;;;;;;;6.24;84.82;100140.12;1761682;80;21042;-45
2022/10/12 03:15:29;;;;;;;67.00;29.87;;;;;;;6.22;84.84;100136.69;1761736;81;20995;-44
2022/10/12 03:17:55;;;;;;;64.43;30.33;;;;;;;6.22;85.07;100134.08;1762007;81;21003;-38
2022/10/12 03:20:21;;;;;;;62.95;30.50;;;;;;;6.21;84.99;100136.30;1761808;81;20999;-43
2022/10/12 03:22:47;;;;;;;60.15;30.20;;;;;;;6.19;85.00;100137.63;1761733;80;21496;-40
2022/10/12 03:25:13;;;;;;;60.73;29.75;;;;;;;6.20;84.92;100133.26;1761819;80;20995;-46
2022/10/12 03:27:39;;;;;;;70.78;29.67;;;;;;;6.20;84.99;100142.41;1761668;81;20983;-43
2022/10/12 03:30:06;;;;;;;64.58;30.30;;;;;;;6.20;84.89;100134.56;1761856;80;21523;-44
2022/10/12 03:32:31;;;;;;;68.25;29.35;;;;;;;6.20;84.91;100135.41;1761864;81;21003;-41
2022/10/12 03:34:57;;;;;;;74.17;31.80;;;;;;;6.19;85.12;100143.31;1761801;81;21027;-42
2022/10/12 03:37:23;;;;;;;78.12;32.75;;;;;;;6.15;85.24;100143.38;1761720;81;20987;-43
2022/10/12 03:39:49;;;;;;;77.20;30.15;;;;;;;6.15;85.05;100139.91;1761706;81;20960;-45
2022/10/12 03:42:14;;;;;;;78.83;31.17;;;;;;;6.20;84.47;100141.09;1761703;80;20980;-38
2022/10/12 03:44:41;;;;;;;63.35;29.55;;;;;;;6.19;84.34;100135.02;1762100;81;21570;-41
2022/10/12 03:47:06;;;;;;;63.60;29.60;;;;;;;6.20;84.54;100134.11;1761947;81;21499;-40
2022/10/12 03:49:32;;;;;;;61.68;27.07;;;;;;;6.16;84.56;100136.39;1762197;81;20980;-46
2022/10/12 03:51:58;;;;;;;62.73;27.73;;;;;;;6.15;84.52;100134.69;1761998;80;20980;-43
2022/10/12 03:54:24;;;;;;;55.25;26.65;;;;;;;6.16;84.38;100136.39;1761558;81;20982;-44
2022/10/12 03:56:49;;;;;;;70.12;31.40;;;;;;;6.17;84.69;100141.16;1761411;80;20987;-40
2022/10/12 03:59:15;;;;;;;63.70;28.32;;;;;;;6.14;84.26;100137.73;1761491;81;21077;-42
2022/10/12 04:01:41;;;;;;;63.40;29.23;;;;;;;6.12;84.56;100145.20;1761570;81;20987;-43
2022/10/12 04:04:09;;;;;;;60.90;28.05;;;;;;;6.11;84.52;100146.96;1761458;81;20999;-44
2022/10/12 04:06:35;;;;;;;61.53;28.77;;;;;;;6.07;84.70;100146.59;1761491;81;20967;-41
2022/10/12 04:09:00;;;;;;;61.63;28.23;;;;;;;6.05;84.62;100145.78;1761458;81;20975;-48
2022/10/12 04:11:26;;;;;;;60.83;28.67;;;;;;;6.04;84.75;100142.77;1761398;81;20960;-45
2022/10/12 04:13:52;;;;;;;73.87;29.70;;;;;;;6.02;84.74;100143.69;1761439;81;20995;-40
2022/10/12 04:16:18;;;;;;;76.05;30.80;;;;;;;5.99;84.82;100145.93;1761535;81;21858;-43
2022/10/12 04:18:43;;;;;;;64.27;30.90;;;;;;;5.99;85.08;100141.16;1761392;81;21027;-43
2022/10/12 04:21:13;;;;;;;64.03;31.48;;;;;;;5.94;84.93;100139.46;1761433;81;20982;-46
2022/10/12 04:23:39;;;;;;;72.82;32.13;;;;;;;5.95;84.73;100148.17;1761453;81;20972;-40
2022/10/12 04:26:05;;;;;;;66.87;32.90;;;;;;;5.94;84.77;100147.75;1760864;81;21223;-44
2022/10/12 04:28:32;;;;;;;73.55;32.38;;;;;;;5.94;84.85;100149.05;1761435;81;20979;-43
2022/10/12 04:30:57;;;;;;;71.30;31.73;;;;;;;5.91;84.95;100144.77;1761415;81;21011;-41
2022/10/12 04:33:23;;;;;;;66.37;31.50;;;;;;;5.90;84.85;100152.63;1761439;81;21038;-46
2022/10/12 04:35:49;;;;;;;68.35;31.70;;;;;;;5.88;84.75;100149.20;1761422;81;21045;-44
2022/10/12 04:38:15;;;;;;;61.88;30.32;;;;;;;5.88;84.65;100150.05;1761447;81;20999;-43
2022/10/12 04:40:46;;;;;;;68.75;32.95;;;;;;;5.88;84.61;100157.03;1761489;81;21007;-41
2022/10/12 04:43:13;;;;;;;68.12;31.95;;;;;;;5.86;84.77;100153.61;1761396;81;21090;-42
2022/10/12 04:45:39;;;;;;;63.28;30.12;;;;;;;5.84;84.82;100151.02;1761438;81;21003;-41
2022/10/12 04:48:04;;;;;;;66.10;29.95;;;;;;;5.86;84.76;100155.76;1761419;81;21050;-44
2022/10/12 04:50:30;;;;;;;63.75;30.57;;;;;;;5.83;84.83;100154.52;1761421;81;20999;-40
2022/10/12 04:52:56;;;;;;;60.95;30.32;;;;;;;5.84;85.25;100152.33;1761428;81;20999;-43
2022/10/12 04:55:22;;;;;;;66.85;30.65;;;;;;;5.85;84.74;100156.64;1761347;81;20995;-46
2022/10/12 04:57:48;;;;;;;63.33;29.40;;;;;;;5.81;84.99;100159.37;1761555;81;21551;-46
2022/10/12 05:00:15;;;;;;;64.70;31.03;;;;;;;5.81;84.89;100160.67;1761747;81;21003;-43
2022/10/12 05:02:41;;;;;;;70.50;31.07;;;;;;;5.77;84.75;100162.03;1761601;81;21403;-43
2022/10/12 05:05:08;;;;;;;64.60;31.30;;;;;;;5.77;85.01;100163.80;1761349;80;21035;-39
2022/10/12 05:07:33;;;;;;;74.95;31.33;;;;;;;5.76;84.77;100157.69;1761360;81;21043;-44
2022/10/12 05:09:59;;;;;;;73.90;32.88;;;;;;;5.73;84.83;100160.39;1761440;81;21051;-40
2022/10/12 05:12:25;;;;;;;74.85;31.10;;;;;;;5.73;84.81;100159.09;1761454;81;21610;-44
2022/10/12 05:14:51;;;;;;;79.53;34.80;;;;;;;5.73;84.89;100159.09;1761489;81;21500;-42
2022/10/12 05:17:17;;;;;;;74.35;33.35;;;;;;;5.74;85.15;100159.48;1761440;81;21532;-42
2022/10/12 05:19:42;;;;;;;84.87;34.95;;;;;;;5.74;85.20;100160.78;1761391;81;20991;-45
2022/10/12 05:22:08;;;;;;;82.30;34.92;;;;;;;5.74;85.20;100159.48;1761424;81;20995;-41
2022/10/12 05:24:34;;;;;;;80.03;35.55;;;;;;;5.73;85.03;100171.25;1761379;81;21070;-42
2022/10/12 05:26:59;;;;;;;79.50;35.17;;;;;;;5.71;84.87;100175.23;1761460;81;20991;-46
2022/10/12 05:29:26;;;;;;;86.12;35.43;;;;;;;5.74;84.86;100179.05;1761497;81;21537;-49
2022/10/12 05:31:52;;;;;;;71.67;34.48;;;;;;;5.74;84.81;100180.36;1761359;81;21003;-47
2022/10/12 05:34:17;;;;;;;91.02;36.48;;;;;;;5.73;85.09;100179.08;1761366;81;20995;-41
2022/10/12 05:36:43;;;;;;;83.82;36.85;;;;;;;5.74;84.78;100180.36;1761311;81;21480;-42
2022/10/12 05:39:09;;;;;;;87.05;36.08;;;;;;;5.75;85.33;100182.55;1761367;81;20983;-44
2022/10/12 05:41:35;;;;;;;90.83;35.85;;;;;;;5.75;85.24;100182.55;1761421;81;21030;-46
2022/10/12 05:44:01;;;;;;;84.15;35.98;;;;;;;5.75;85.41;100177.33;1761340;81;21572;-44
2022/10/12 05:46:26;;;;;;;72.22;33.33;;;;;;;5.77;85.58;100180.76;1761416;81;21038;-41
2022/10/12 05:48:52;;;;;;;83.50;36.17;;;;;;;5.78;85.40;100181.16;1761444;80;21453;-46
2022/10/12 05:51:18;;;;;;;88.22;35.50;;;;;;;5.79;85.49;100185.95;1761394;81;21527;-45
2022/10/12 05:53:43;;;;;;;78.92;35.85;;;;;;;5.83;85.31;100187.59;1761418;81;21471;-44
2022/10/12 05:56:09;;;;;;;75.70;35.52;;;;;;;5.85;85.11;100185.35;1761368;81;20983;-44
2022/10/12 05:58:35;;;;;;;74.20;36.63;;;;;;;5.87;85.21;100181.41;1761368;80;20987;-46
2022/10/12 06:01:10;;;;;;;78.35;36.30;;;;;;;5.85;85.53;100181.44;1761346;81;20982;-44
2022/10/12 06:03:36;;;;;;;74.97;35.48;;;;;;;5.89;85.67;100183.53;1761425;81;21022;-45
2022/10/12 06:06:05;;;;;;;72.00;35.68;;;;;;;5.90;85.53;100187.88;1761257;81;20999;-46
2022/10/12 06:08:32;;;;;;;84.87;34.67;;;;;;;5.93;85.71;100186.48;1760707;81;20955;-40
2022/10/12 06:10:58;;;;;;;93.45;35.58;;;;;;;5.98;85.90;100191.66;1761488;81;20991;-38
2022/10/12 06:13:24;;;;;;;73.10;34.78;;;;;;;6.02;85.68;100191.56;1761260;80;20990;-46
2022/10/12 06:15:50;;;;;;;82.92;34.88;;;;;;;6.03;85.89;100193.27;1761323;81;21504;-47
2022/10/12 06:18:17;;;;;;;77.62;35.25;;;;;;;6.06;85.97;100197.58;1761322;81;20995;-43
2022/10/12 06:20:51;;;;;;;77.90;34.37;;;;;;;6.08;85.94;100194.03;1760802;80;20971;-43
2022/10/12 06:23:18;;;;;;;83.07;33.70;;;;;;;6.13;85.79;100200.02;1733389;81;21762;-42
2022/10/12 06:25:49;;;;;;;70.80;32.70;;;;;;;6.17;86.01;100206.02;1761484;81;20986;-41
2022/10/12 06:28:18;;;;;;;72.27;33.90;;;;;;;6.24;86.11;100211.52;1761006;80;21002;-42
2022/10/12 06:30:44;;;;;;;73.85;32.08;;;;;;;6.29;86.09;100205.75;1761235;81;20963;-40
2022/10/12 06:33:09;;;;;;;68.80;31.37;;;;;;;6.37;85.88;100212.09;1761164;81;21006;-44
2022/10/12 06:35:37;;;;;;;68.22;31.15;;;;;;;6.44;85.77;100216.29;1761115;81;21006;-42
2022/10/12 06:38:03;;;;;;;;;;;;;;;6.50;85.79;100218.74;1763809;81;20971;-41
2022/10/12 06:40:29;;;;;;;60.15;29.70;;;;;;;6.53;85.76;100218.68;1761369;81;20498;-41
2022/10/12 06:42:54;;;;;;;66.35;29.92;;;;;;;6.61;85.56;100213.72;1758162;80;21023;-44
2022/10/12 06:45:20;;;;;;;70.90;29.77;;;;;;;6.67;85.26;100210.94;1753464;82;21003;-42
2022/10/12 06:47:46;;;;;;;65.22;29.45;;;;;;;6.74;85.22;100212.52;1753515;81;21050;-42
2022/10/12 06:50:12;;;;;;;58.80;28.55;;;;;;;6.82;85.19;100211.89;1753452;82;20971;-44
2022/10/12 06:52:38;;;;;;;67.15;28.95;;;;;;;6.90;84.60;100217.77;1753470;80;20992;-40
2022/10/12 06:55:05;;;;;;;66.02;27.25;;;;;;;6.97;84.63;100212.36;1753536;82;20998;-41
2022/10/12 06:57:31;;;;;;;56.45;25.75;;;;;;;7.03;84.82;100214.84;1753233;81;21034;-38
2022/10/12 06:59:57;;;;;;;64.70;26.60;;;;;;;7.11;84.18;100211.56;1751892;82;21090;-36
2022/10/12 07:02:23;;;;;;;58.38;26.50;;;;;;;7.19;84.16;100214.00;1753450;81;20995;-41
2022/10/12 07:04:51;;;;;;;52.30;27.55;;;;;;;7.24;83.88;100211.66;1753193;81;20948;-41
2022/10/12 07:07:18;;;;;;;58.13;26.00;;;;;;;7.30;83.91;100208.88;1753194;81;20949;-41
2022/10/12 07:09:44;;;;;;;58.90;26.27;;;;;;;7.39;84.17;100205.16;1753843;81;21426;-38
2022/10/12 07:12:10;;;;;;;61.90;26.33;;;;;;;7.46;84.08;100206.70;1753456;81;20984;-43
2022/10/12 07:14:35;;;;;;;52.78;23.70;;;;;;;7.53;83.72;100210.02;1753700;81;21437;-39
2022/10/12 07:17:01;;;;;;;46.30;21.80;;;;;;;7.61;83.63;100209.33;1753444;81;21523;-40
2022/10/12 07:19:27;;;;;;;49.08;21.48;;;;;;;7.73;83.23;100213.80;1753433;81;20995;-38
2022/10/12 07:21:52;;;;;;;52.48;19.27;;;;;;;7.82;82.86;100214.41;1753607;81;20968;-42
2022/10/12 07:24:18;;;;;;;40.43;18.65;;;;;;;7.93;82.41;100215.84;1753659;81;21106;-43
2022/10/12 07:26:44;;;;;;;46.50;18.60;;;;;;;8.03;82.17;100208.97;1753490;81;20968;-41
2022/10/12 07:29:10;;;;;;;40.88;17.48;;;;;;;8.12;82.50;100213.55;1753819;80;21027;-39
2022/10/12 07:31:37;;;;;;;34.70;14.53;;;;;;;8.19;82.19;100220.31;1753712;80;20964;-40
2022/10/12 07:34:02;;;;;;;39.03;14.37;;;;;;;8.27;81.77;100219.14;1753843;81;20988;-41
2022/10/12 07:36:28;;;;;;;36.93;14.63;;;;;;;8.38;81.51;100216.20;1753670;81;21718;-39
2022/10/12 07:38:54;;;;;;;29.60;13.22;;;;;;;8.47;81.02;100220.33;1753631;82;20961;-40
2022/10/12 07:41:20;;;;;;;32.40;13.98;;;;;;;8.56;80.91;100210.86;1753471;81;20984;-39
2022/10/12 07:43:46;;;;;;;35.30;13.08;;;;;;;8.67;80.70;100215.75;1758380;81;21003;-43
2022/10/12 07:46:11;;;;;;;28.77;11.12;;;;;;;8.76;80.49;100212.83;1761457;81;21062;-39
2022/10/12 07:48:40;;;;;;;32.90;11.50;;;;;;;8.87;80.11;100212.94;1761447;80;21563;-42
2022/10/12 07:51:07;;;;;;;;;;;;;;;8.95;79.65;100216.14;1763990;81;21018;-42
2022/10/12 07:53:34;;;;;;;24.32;8.53;;;;;;;9.03;79.82;100209.73;1760943;81;20112;-41
2022/10/12 07:56:02;;;;;;;17.48;6.87;;;;;;;9.11;79.11;100207.30;1761652;81;21473;-40
2022/10/12 07:58:28;;;;;;;29.98;8.20;;;;;;;9.19;77.91;100216.63;1761561;81;20987;-40
2022/10/12 08:00:54;;;;;;;20.23;7.47;;;;;;;9.28;77.86;100204.08;1761453;80;21073;-43
2022/10/12 08:03:20;;;;;;;20.77;7.60;;;;;;;9.38;77.52;100206.78;1761304;81;21011;-40
2022/10/12 08:05:45;;;;;;;28.77;7.22;;;;;;;9.43;77.04;100208.80;1761485;81;20964;-41
2022/10/12 08:08:13;;;;;;;24.18;7.67;;;;;;;9.54;76.72;100213.66;1761396;81;20968;-40
2022/10/12 08:10:38;;;;;;;24.32;8.55;;;;;;;9.63;76.45;100207.23;1761423;81;21458;-38
2022/10/12 08:13:04;;;;;;;21.35;7.80;;;;;;;9.73;76.78;100211.20;1761333;80;20987;-42
2022/10/12 08:15:30;;;;;;;21.65;8.45;;;;;;;9.84;75.97;100210.81;1761382;81;20991;-39
2022/10/12 08:17:56;;;;;;;20.35;7.40;;;;;;;9.94;76.13;100210.41;1761462;81;20968;-44
2022/10/12 08:20:22;;;;;;;20.25;7.75;;;;;;;10.09;75.60;100208.11;1761447;81;21039;-42
2022/10/12 08:22:47;;;;;;;19.73;7.85;;;;;;;10.23;73.76;100209.75;1761380;81;20991;-41
2022/10/12 08:25:13;;;;;;;23.40;8.38;;;;;;;10.39;73.49;100206.09;1761210;81;20968;-39
2022/10/12 08:27:39;;;;;;;25.45;7.75;;;;;;;10.58;74.33;100206.19;1761174;81;20988;-37
2022/10/12 08:30:06;;;;;;;18.48;8.18;;;;;;;10.73;73.69;100208.65;1761397;80;21464;-43
2022/10/12 08:32:33;;;;;;;21.23;8.53;;;;;;;10.84;72.72;100212.16;1760422;80;21015;-43
2022/10/12 08:34:59;;;;;;;23.67;9.00;;;;;;;10.92;71.77;100207.44;1758914;81;20971;-45
2022/10/12 08:37:25;;;;;;;23.55;8.18;;;;;;;11.02;71.99;100212.69;1759063;81;20959;-44
2022/10/12 08:39:50;;;;;;;18.23;6.55;;;;;;;11.09;71.16;100211.52;1759178;81;21583;-41
2022/10/12 08:42:37;;;;;;;17.20;4.47;;;;;;;11.21;69.99;100208.83;1759100;81;21091;-44
2022/10/12 08:45:37;;;;;;;21.33;5.25;;;;;;;11.36;70.40;100213.88;1759227;81;21074;-40
2022/10/12 08:48:16;;;;;;;20.23;5.53;;;;;;;11.47;69.82;100211.62;1759047;81;20999;-41
2022/10/12 08:51:04;;;;;;;13.83;5.35;;;;;;;11.68;69.55;100203.23;1759066;81;21002;-41
2022/10/12 08:53:48;;;;;;;18.73;4.33;;;;;;;11.79;68.40;100203.19;1759477;81;20995;-43
2022/10/12 08:56:19;;;;;;;22.17;4.85;;;;;;;12.02;68.36;100200.38;1759221;81;20987;-42
2022/10/12 08:58:47;;;;;;;12.33;3.75;;;;;;;12.33;66.80;100206.84;1759271;81;21464;-47
2022/10/12 09:01:35;;;;;;;18.00;4.58;;;;;;;12.62;66.45;100208.53;1758988;81;21018;-45
2022/10/12 09:04:41;;;;;;;15.95;3.92;;;;;;;12.92;66.49;100210.13;1758583;81;20990;-44
2022/10/12 09:07:21;;;;;;;14.98;4.70;;;;;;;13.34;67.70;100211.53;1758735;81;21036;-40
2022/10/12 09:10:09;;;;;;;12.25;4.72;;;;;;;13.52;64.07;100203.59;1755665;81;21046;-43
2022/10/12 09:12:58;;;;;;;20.52;4.97;;;;;;;13.50;64.47;100203.66;1759261;81;20999;-45
2022/10/12 09:15:35;;;;;;;6.50;3.30;;;;;;;13.42;64.19;100206.72;1759262;81;20963;-44
2022/10/12 09:18:05;;;;;;;9.43;3.55;;;;;;;13.29;63.72;100204.27;1759223;81;21027;-45
2022/10/12 09:20:42;;;;;;;11.95;4.33;;;;;;;13.11;62.42;100209.19;1759317;81;21058;-44
2022/10/12 09:23:25;;;;;;;;;;;;;;;12.95;61.73;100199.86;1761094;81;21480;-44
2022/10/12 09:26:12;;;;;;;13.58;4.40;;;;;;;12.84;61.86;100201.72;1761505;80;20516;-42
2022/10/12 09:28:45;;;;;;;13.43;3.95;;;;;;;12.74;62.29;100205.77;1760630;80;21018;-45
2022/10/12 09:31:37;;;;;;;14.28;3.37;;;;;;;12.60;61.65;100203.33;1759483;81;21014;-44
2022/10/12 09:34:07;;;;;;;12.13;4.47;;;;;;;12.51;61.70;100198.50;1759393;81;21441;-42
2022/10/12 09:36:38;;;;;;;15.75;4.25;;;;;;;12.42;61.68;100201.12;1760518;81;20972;-43
2022/10/12 09:39:20;;;;;;;11.97;4.22;;;;;;;12.39;62.17;100204.40;1760734;81;20960;-42
2022/10/12 09:41:48;;;;;;;17.27;5.30;;;;;;;12.38;62.22;100207.95;1765294;80;21471;-42
2022/10/12 09:44:31;;;;;;;18.70;5.97;;;;;;;12.38;61.87;100204.00;1781397;80;20974;-45
2022/10/12 09:47:04;;;;;;;22.58;6.15;;;;;;;12.35;61.39;100207.65;1750931;80;20964;-44
2022/10/12 09:49:45;;;;;;;14.40;5.12;;;;;;;12.37;61.89;100207.55;1747189;81;20975;-45
2022/10/12 09:52:18;;;;;;;12.18;5.42;;;;;;;12.36;62.10;100204.53;1747055;81;20988;-44
2022/10/12 09:54:58;;;;;;;17.95;6.05;;;;;;;12.36;61.68;100208.50;1745700;82;20955;-41
2022/10/12 09:57:42;;;;;;;15.83;5.53;;;;;;;12.38;61.58;100211.91;1723596;82;21434;-46
2022/10/12 10:00:30;;;;;;;21.45;6.53;;;;;;;12.39;60.44;100212.31;1745565;82;21027;-45
2022/10/12 10:02:57;;;;;;;12.68;5.78;;;;;;;12.44;61.03;100216.44;1746962;82;21477;-45
2022/10/12 10:05:36;;;;;;;13.53;4.97;;;;;;;12.47;60.70;100216.73;1740797;82;20999;-46
2022/10/12 10:08:21;;;;;;;11.43;3.80;;;;;;;12.56;60.93;100212.33;1746839;82;20956;-43
2022/10/12 10:10:55;;;;;;;9.65;3.05;;;;;;;12.63;61.12;100211.10;1745688;82;20959;-40
2022/10/12 10:13:26;;;;;;;9.13;2.87;;;;;;;12.71;59.05;100217.31;1723272;82;20968;-41
2022/10/12 10:16:08;;;;;;;7.22;2.85;;;;;;;12.72;60.08;100216.87;1746358;82;21007;-44
2022/10/12 10:18:43;;;;;;;11.20;3.37;;;;;;;12.73;59.46;100216.77;1746549;82;20944;-40
2022/10/12 10:21:13;;;;;;;12.93;3.98;;;;;;;12.70;58.83;100212.98;1747094;82;20976;-48
2022/10/12 10:23:52;;;;;;;8.85;3.30;;;;;;;12.65;58.25;100207.92;1746313;82;21476;-43
2022/10/12 10:26:20;;;;;;;14.00;3.45;;;;;;;12.70;58.99;100210.79;1746947;81;20956;-43
2022/10/12 10:28:50;;;;;;;8.18;3.10;;;;;;;12.70;59.43;100205.52;1746112;82;21010;-46
2022/10/12 10:31:26;;;;;;;8.25;2.80;;;;;;;12.70;59.19;100211.67;1745860;82;20956;-46
2022/10/12 10:34:17;;;;;;;9.60;2.90;;;;;;;12.68;58.62;100205.14;1741500;82;20940;-41
2022/10/12 10:36:50;;;;;;;13.28;2.50;;;;;;;12.69;58.71;100207.30;1747009;82;20959;-46
2022/10/12 10:39:30;;;;;;;15.72;2.80;;;;;;;12.73;58.95;100201.41;1740357;81;20933;-47
2022/10/12 10:42:27;;;;;;;10.25;2.10;;;;;;;12.78;58.94;100198.08;1746316;81;20995;-45
2022/10/12 10:45:07;;;;;;;5.00;1.67;;;;;;;12.87;59.00;100198.47;1747051;80;21556;-44
2022/10/12 10:47:45;;;;;;;7.75;1.80;;;;;;;12.94;57.06;100191.58;1746413;81;20960;-44
2022/10/12 10:50:25;;;;;;;;;;;;;;;13.03;58.23;100189.78;1745372;81;20964;-45
2022/10/12 10:52:57;;;;;;;7.90;2.70;;;;;;;13.06;57.18;100188.28;1745941;81;20102;-42
2022/10/12 10:55:43;;;;;;;9.50;2.27;;;;;;;13.07;55.47;100192.65;1717222;82;21487;-44
2022/10/12 10:58:36;;;;;;;15.88;2.50;;;;;;;13.10;56.36;100196.91;1746525;81;21532;-44
2022/10/12 11:01:21;;;;;;;8.80;2.45;;;;;;;13.15;57.27;100189.60;1734785;81;20961;-43
2022/10/12 11:04:20;;;;;;;11.83;2.77;;;;;;;13.18;56.73;100186.34;1744125;81;20960;-43
2022/10/12 11:06:51;;;;;;;7.45;2.52;;;;;;;13.23;56.53;100183.47;1745696;82;21027;-44
2022/10/12 11:09:22;;;;;;;7.53;2.40;;;;;;;13.31;56.43;100185.27;1735644;82;20975;-48
2022/10/12 11:11:59;;;;;;;10.45;2.30;;;;;;;13.37;56.76;100181.00;1747121;82;20995;-49
2022/10/12 11:14:33;;;;;;;9.08;2.33;;;;;;;13.42;56.31;100179.42;1742336;81;21457;-43
2022/10/12 11:17:23;;;;;;;9.70;2.30;;;;;;;13.44;56.42;100171.81;1744957;82;21551;-44
2022/10/12 11:20:18;;;;;;;8.73;2.02;;;;;;;13.52;56.76;100175.36;1747016;81;21429;-45
2022/10/12 11:22:49;;;;;;;7.37;2.10;;;;;;;13.61;56.39;100171.38;1747412;81;20984;-48
2022/10/12 11:25:24;;;;;;;5.67;1.95;;;;;;;13.64;55.70;100172.52;1741275;81;20940;-41
2022/10/12 11:27:50;;;;;;;6.55;1.90;;;;;;;13.67;54.32;100163.58;1744699;81;20936;-43
2022/10/12 11:30:23;;;;;;;6.58;1.95;;;;;;;13.80;55.06;100158.00;1744822;82;20928;-42
2022/10/12 11:33:04;;;;;;;10.28;2.20;;;;;;;13.80;55.06;100158.00;1741157;81;20944;-45
2022/10/12 11:35:34;;;;;;;12.13;2.25;;;;;;;13.86;55.35;100159.01;1725719;82;20967;-45
2022/10/12 11:38:07;;;;;;;11.20;2.17;;;;;;;13.95;54.85;100162.91;1746989;82;20956;-43
2022/10/12 11:40:41;;;;;;;10.32;2.50;;;;;;;14.04;54.24;100157.59;1747459;81;21007;-40
2022/10/12 11:43:12;;;;;;;8.25;2.25;;;;;;;14.11;53.71;100153.18;1746108;81;21027;-42
2022/10/12 11:45:42;;;;;;;5.62;1.90;;;;;;;14.27;54.12;100153.17;1760095;80;21031;-40
2022/10/12 11:48:33;;;;;;;7.20;1.87;;;;;;;14.40;54.22;100154.64;1760721;81;21015;-41
2022/10/12 11:51:00;;;;;;;5.22;1.50;;;;;;;14.55;54.03;100150.25;1758956;81;21019;-45
2022/10/12 11:54:06;;;;;;;5.23;1.87;;;;;;;14.67;52.01;100150.06;1760337;81;20990;-38
2022/10/12 11:56:41;;;;;;;7.17;1.92;;;;;;;14.82;53.25;100145.66;1760336;81;21449;-41
2022/10/12 11:59:27;;;;;;;8.53;2.33;;;;;;;14.97;53.16;100157.97;1760018;81;20971;-41
2022/10/12 12:02:15;;;;;;;11.43;2.27;;;;;;;14.93;50.82;100153.33;1761149;81;20960;-40
2022/10/12 12:04:44;;;;;;;10.00;2.37;;;;;;;15.13;51.94;100153.94;1757391;81;21468;-41
2022/10/12 12:07:52;;;;;;;8.48;2.55;;;;;;;15.52;51.83;100143.17;1761111;81;21445;-39
2022/10/12 12:10:36;;;;;;;7.58;3.08;;;;;;;15.60;52.05;100151.97;1760186;81;20960;-41
2022/10/12 12:13:17;;;;;;;9.30;2.65;;;;;;;15.38;50.49;100149.80;1761099;81;21011;-38
2022/10/12 12:15:54;;;;;;;10.45;2.62;;;;;;;15.69;50.98;100146.92;1761301;81;20983;-38
2022/10/12 12:18:32;;;;;;;8.55;2.33;;;;;;;15.68;50.52;100143.92;1761418;81;21520;-42
2022/10/12 12:21:03;;;;;;;6.97;2.30;;;;;;;15.65;50.19;100145.42;1759424;80;21539;-43
2022/10/12 12:23:40;;;;;;;12.88;2.00;;;;;;;15.42;49.31;100140.70;1760014;81;20983;-43
2022/10/12 12:26:14;;;;;;;5.53;1.93;;;;;;;15.33;50.80;100146.97;1761369;80;20990;-39
2022/10/12 12:28:50;;;;;;;8.53;2.00;;;;;;;15.15;50.34;100134.81;1760440;80;20979;-39
2022/10/12 12:31:26;;;;;;;7.67;2.52;;;;;;;15.14;50.97;100137.95;1759891;81;20968;-43
2022/10/12 12:34:14;;;;;;;7.65;2.02;;;;;;;14.96;51.07;100146.53;1761161;81;21598;-42
2022/10/12 12:36:43;;;;;;;7.35;2.00;;;;;;;14.76;50.45;100146.87;1759075;81;21086;-37
2022/10/12 12:39:31;;;;;;;5.10;1.80;;;;;;;14.69;50.72;100138.91;1759867;81;21007;-41
2022/10/12 12:42:07;;;;;;;7.08;1.70;;;;;;;14.63;50.34;100139.28;1760567;81;21366;-38
2022/10/12 12:44:41;;;;;;;6.53;1.67;;;;;;;14.56;50.19;100146.20;1754380;81;21024;-39
2022/10/12 12:47:12;;;;;;;6.55;2.00;;;;;;;14.54;50.07;100146.77;1746350;82;21126;-39
2022/10/12 12:49:59;;;;;;;9.80;2.00;;;;;;;14.59;50.68;100144.74;1740221;82;21011;-45
2022/10/12 12:52:36;;;;;;;9.73;1.60;;;;;;;14.62;50.63;100146.83;1741636;81;21055;-37
2022/10/12 12:55:24;;;;;;;10.28;1.85;;;;;;;15.45;49.77;100140.52;1746387;81;21050;-37
2022/10/12 12:58:19;;;;;;;7.60;2.00;;;;;;;17.98;49.76;100138.65;1742923;82;20948;-38
2022/10/12 13:01:02;;;;;;;4.72;2.02;;;;;;;18.73;46.28;100134.03;1740494;81;20972;-48
2022/10/12 13:03:51;;;;;;;10.20;2.12;;;;;;;18.09;45.09;100139.20;1723412;82;20944;-41
2022/10/12 13:06:40;;;;;;;11.40;2.08;;;;;;;17.60;45.88;100132.91;1742960;82;21496;-43
2022/10/12 13:09:31;;;;;;;7.85;1.98;;;;;;;17.21;46.47;100132.11;1739498;81;20988;-46
2022/10/12 13:12:22;;;;;;;7.58;1.87;;;;;;;16.87;46.75;100129.11;1743598;81;21011;-40
2022/10/12 13:15:05;;;;;;;9.63;2.52;;;;;;;16.55;46.82;100127.27;1744986;82;21019;-39
2022/10/12 13:18:19;;;;;;;6.17;2.40;;;;;;;16.08;47.42;100132.12;1715619;82;21015;-38
2022/10/12 13:20:48;;;;;;;9.53;1.90;;;;;;;15.78;48.24;100125.64;1744663;82;20952;-41
2022/10/12 13:23:21;;;;;;;6.97;2.50;;;;;;;15.61;47.89;100128.02;1746648;81;20960;-43
2022/10/12 13:25:57;;;;;;;29.12;2.77;;;;;;;15.57;48.00;100128.29;1742318;81;21482;-44
2022/10/12 13:28:27;;;;;;;12.13;2.40;;;;;;;15.43;47.75;100129.17;1729684;82;21548;-39
2022/10/12 13:31:19;;;;;;;7.20;2.02;;;;;;;15.34;48.15;100126.13;1746976;81;21016;-38
2022/10/12 13:33:56;;;;;;;9.65;2.10;;;;;;;15.26;48.21;100128.41;1741421;82;21045;-36
2022/10/12 13:36:29;;;;;;;5.33;1.98;;;;;;;15.15;48.17;100127.74;1746939;81;20978;-38
2022/10/12 13:38:58;;;;;;;5.95;2.10;;;;;;;15.12;48.52;100123.95;1747044;82;20975;-41
2022/10/12 13:41:29;;;;;;;9.98;2.25;;;;;;;15.04;48.70;100122.70;1740699;82;20960;-42
2022/10/12 13:44:00;;;;;;;5.05;1.90;;;;;;;15.00;48.73;100114.57;1746699;81;20955;-38
2022/10/12 13:46:55;;;;;;;6.08;1.85;;;;;;;14.93;48.70;100132.13;1751778;82;21468;-43
2022/10/12 13:49:24;;;;;;;11.20;2.37;;;;;;;14.84;48.98;100126.06;1746568;82;21050;-45
2022/10/12 13:51:55;;;;;;;16.32;2.00;;;;;;;14.72;48.94;100124.17;1750439;81;21013;-46
2022/10/12 13:54:32;;;;;;;8.30;2.08;;;;;;;14.66;49.14;100127.16;1751551;82;21420;-41
2022/10/12 13:57:20;;;;;;;3.52;1.98;;;;;;;14.55;49.23;100122.02;1746264;81;21003;-42
2022/10/12 13:59:51;;;;;;;8.45;2.17;;;;;;;14.41;49.50;100121.97;1749115;82;20958;-38
2022/10/12 14:02:31;;;;;;;8.23;1.98;;;;;;;14.28;49.88;100119.17;1747837;81;21491;-39
2022/10/12 14:04:59;;;;;;;5.05;1.87;;;;;;;14.18;49.93;100114.86;1752687;82;21451;-40
2022/10/12 14:07:36;;;;;;;12.25;2.42;;;;;;;14.13;50.18;100114.75;1745978;81;21286;-41
2022/10/12 14:10:10;;;;;;;14.10;2.00;;;;;;;14.09;50.64;100117.19;1749139;82;20984;-40
2022/10/12 14:12:36;;;;;;;6.80;2.33;;;;;;;14.03;50.77;100119.72;1748759;82;20990;-43
2022/10/12 14:15:04;;;;;;;12.53;2.12;;;;;;;13.95;51.01;100115.31;1751347;82;20962;-39
2022/10/12 14:17:30;;;;;;;8.65;2.40;;;;;;;13.88;51.60;100109.98;1751544;82;21464;-40
2022/10/12 14:20:18;;;;;;;17.67;2.70;;;;;;;13.82;52.24;100116.47;1752315;81;20998;-38
2022/10/12 14:22:48;;;;;;;9.35;2.40;;;;;;;13.76;53.26;100107.09;1746556;81;20975;-39
2022/10/12 14:25:19;;;;;;;9.35;2.20;;;;;;;13.70;52.45;100107.45;1752481;80;20954;-41
2022/10/12 14:27:45;;;;;;;7.05;2.05;;;;;;;13.61;52.46;100106.16;1751511;82;20931;-42